sensor_id;sensor_type;location;lat;lon;timestamp;temperature;humidity
65378;SHT31;77039;51.042;13.806;2024-03-06T00:01:08;6.56;80.56
65378;SHT31;77039;51.042;13.806;2024-03-06T00:03:34;6.56;80.46
65378;SHT31;77039;51.042;13.806;2024-03-06T00:05:59;6.63;80.56
65378;SHT31;77039;51.042;13.806;2024-03-06T00:08:25;6.65;80.43
65378;SHT31;77039;51.042;13.806;2024-03-06T00:10:50;6.65;80.48
65378;SHT31;77039;51.042;13.806;2024-03-06T00:13:16;6.62;80.39
65378;SHT31;77039;51.042;13.806;2024-03-06T00:15:41;6.63;80.54
65378;SHT31;77039;51.042;13.806;2024-03-06T00:18:07;6.66;80.53
65378;SHT31;77039;51.042;13.806;2024-03-06T00:20:32;6.61;80.37
65378;SHT31;77039;51.042;13.806;2024-03-06T00:22:58;6.52;80.29
65378;SHT31;77039;51.042;13.806;2024-03-06T00:25:25;6.50;80.39
65378;SHT31;77039;51.042;13.806;2024-03-06T00:27:50;6.49;80.50
65378;SHT31;77039;51.042;13.806;2024-03-06T00:30:16;6.46;80.46
65378;SHT31;77039;51.042;13.806;2024-03-06T00:32:41;6.43;80.52
65378;SHT31;77039;51.042;13.806;2024-03-06T00:35:07;6.38;80.52
65378;SHT31;77039;51.042;13.806;2024-03-06T00:37:33;6.39;80.65
65378;SHT31;77039;51.042;13.806;2024-03-06T00:39:58;6.42;80.58
65378;SHT31;77039;51.042;13.806;2024-03-06T00:42:24;6.43;80.50
65378;SHT31;77039;51.042;13.806;2024-03-06T00:44:49;6.43;80.45
65378;SHT31;77039;51.042;13.806;2024-03-06T00:47:25;6.41;80.36
65378;SHT31;77039;51.042;13.806;2024-03-06T00:49:50;6.39;80.41
65378;SHT31;77039;51.042;13.806;2024-03-06T00:52:16;6.41;80.40
65378;SHT31;77039;51.042;13.806;2024-03-06T00:54:41;6.38;80.36
65378;SHT31;77039;51.042;13.806;2024-03-06T00:57:07;6.34;80.34
65378;SHT31;77039;51.042;13.806;2024-03-06T00:59:33;6.34;80.49
65378;SHT31;77039;51.042;13.806;2024-03-06T01:01:58;6.26;80.55
65378;SHT31;77039;51.042;13.806;2024-03-06T01:04:24;6.25;80.43
65378;SHT31;77039;51.042;13.806;2024-03-06T01:06:49;6.24;80.48
65378;SHT31;77039;51.042;13.806;2024-03-06T01:09:15;6.22;80.53
65378;SHT31;77039;51.042;13.806;2024-03-06T01:11:40;6.17;80.53
65378;SHT31;77039;51.042;13.806;2024-03-06T01:14:06;6.14;80.51
65378;SHT31;77039;51.042;13.806;2024-03-06T01:16:34;6.08;80.52
65378;SHT31;77039;51.042;13.806;2024-03-06T01:18:59;6.04;80.53
65378;SHT31;77039;51.042;13.806;2024-03-06T01:21:25;6.02;80.59
65378;SHT31;77039;51.042;13.806;2024-03-06T01:23:50;6.01;80.60
65378;SHT31;77039;51.042;13.806;2024-03-06T01:26:16;5.97;80.61
65378;SHT31;77039;51.042;13.806;2024-03-06T01:28:42;5.95;80.64
65378;SHT31;77039;51.042;13.806;2024-03-06T01:31:07;5.95;80.62
65378;SHT31;77039;51.042;13.806;2024-03-06T01:33:33;5.89;80.54
65378;SHT31;77039;51.042;13.806;2024-03-06T01:35:58;5.83;80.55
65378;SHT31;77039;51.042;13.806;2024-03-06T01:38:24;5.83;80.61
65378;SHT31;77039;51.042;13.806;2024-03-06T01:40:49;5.80;80.61
65378;SHT31;77039;51.042;13.806;2024-03-06T01:43:25;5.80;80.63
65378;SHT31;77039;51.042;13.806;2024-03-06T01:45:52;5.77;80.46
65378;SHT31;77039;51.042;13.806;2024-03-06T01:48:21;5.75;80.59
65378;SHT31;77039;51.042;13.806;2024-03-06T01:50:48;5.77;80.60
65378;SHT31;77039;51.042;13.806;2024-03-06T01:53:14;5.74;80.63
65378;SHT31;77039;51.042;13.806;2024-03-06T01:55:40;5.70;80.70
65378;SHT31;77039;51.042;13.806;2024-03-06T01:58:06;5.64;80.72
65378;SHT31;77039;51.042;13.806;2024-03-06T02:00:33;5.64;80.82
65378;SHT31;77039;51.042;13.806;2024-03-06T02:03:00;5.63;80.79
65378;SHT31;77039;51.042;13.806;2024-03-06T02:05:27;5.63;80.80
65378;SHT31;77039;51.042;13.806;2024-03-06T02:07:53;5.63;80.83
65378;SHT31;77039;51.042;13.806;2024-03-06T02:10:19;5.66;80.84
65378;SHT31;77039;51.042;13.806;2024-03-06T02:12:44;5.60;80.76
65378;SHT31;77039;51.042;13.806;2024-03-06T02:15:10;5.60;80.85
65378;SHT31;77039;51.042;13.806;2024-03-06T02:17:37;5.56;80.82
65378;SHT31;77039;51.042;13.806;2024-03-06T02:20:03;5.57;81.00
65378;SHT31;77039;51.042;13.806;2024-03-06T02:22:32;5.59;80.96
65378;SHT31;77039;51.042;13.806;2024-03-06T02:24:57;5.60;80.95
65378;SHT31;77039;51.042;13.806;2024-03-06T02:27:23;5.57;80.87
65378;SHT31;77039;51.042;13.806;2024-03-06T02:29:49;5.57;80.90
65378;SHT31;77039;51.042;13.806;2024-03-06T02:32:14;5.56;80.92
65378;SHT31;77039;51.042;13.806;2024-03-06T02:34:40;5.56;80.82
65378;SHT31;77039;51.042;13.806;2024-03-06T02:37:06;5.50;80.92
65378;SHT31;77039;51.042;13.806;2024-03-06T02:39:31;5.47;80.85
65378;SHT31;77039;51.042;13.806;2024-03-06T02:41:57;5.46;80.83
65378;SHT31;77039;51.042;13.806;2024-03-06T02:44:22;5.49;80.86
65378;SHT31;77039;51.042;13.806;2024-03-06T02:46:49;5.47;80.91
65378;SHT31;77039;51.042;13.806;2024-03-06T02:49:15;5.44;80.83
65378;SHT31;77039;51.042;13.806;2024-03-06T02:51:41;5.40;80.79
65378;SHT31;77039;51.042;13.806;2024-03-06T02:54:07;5.36;80.92
65378;SHT31;77039;51.042;13.806;2024-03-06T02:56:32;5.33;81.01
65378;SHT31;77039;51.042;13.806;2024-03-06T02:58:58;5.35;81.01
65378;SHT31;77039;51.042;13.806;2024-03-06T03:01:23;5.32;80.90
65378;SHT31;77039;51.042;13.806;2024-03-06T03:03:49;5.32;81.06
65378;SHT31;77039;51.042;13.806;2024-03-06T03:06:16;5.32;81.01
65378;SHT31;77039;51.042;13.806;2024-03-06T03:08:42;5.35;81.16
65378;SHT31;77039;51.042;13.806;2024-03-06T03:11:07;5.36;81.24
65378;SHT31;77039;51.042;13.806;2024-03-06T03:13:33;5.29;81.19
65378;SHT31;77039;51.042;13.806;2024-03-06T03:15:59;5.29;81.30
65378;SHT31;77039;51.042;13.806;2024-03-06T03:18:24;5.25;81.15
65378;SHT31;77039;51.042;13.806;2024-03-06T03:20:50;5.25;81.32
65378;SHT31;77039;51.042;13.806;2024-03-06T03:23:16;5.25;81.36
65378;SHT31;77039;51.042;13.806;2024-03-06T03:25:50;5.25;81.14
65378;SHT31;77039;51.042;13.806;2024-03-06T03:28:15;5.22;81.17
65378;SHT31;77039;51.042;13.806;2024-03-06T03:30:44;5.22;81.31
65378;SHT31;77039;51.042;13.806;2024-03-06T03:33:09;5.26;81.40
65378;SHT31;77039;51.042;13.806;2024-03-06T03:35:35;5.26;81.32
65378;SHT31;77039;51.042;13.806;2024-03-06T03:38:00;5.19;81.18
65378;SHT31;77039;51.042;13.806;2024-03-06T03:40:26;5.19;81.21
65378;SHT31;77039;51.042;13.806;2024-03-06T03:42:51;5.13;81.08
65378;SHT31;77039;51.042;13.806;2024-03-06T03:45:17;5.12;81.27
65378;SHT31;77039;51.042;13.806;2024-03-06T03:47:43;5.15;81.35
65378;SHT31;77039;51.042;13.806;2024-03-06T03:50:09;5.20;81.37
65378;SHT31;77039;51.042;13.806;2024-03-06T03:52:34;5.13;81.43
65378;SHT31;77039;51.042;13.806;2024-03-06T03:55:00;5.11;81.45
65378;SHT31;77039;51.042;13.806;2024-03-06T03:57:26;5.18;81.40
65378;SHT31;77039;51.042;13.806;2024-03-06T03:59:51;5.20;81.50
65378;SHT31;77039;51.042;13.806;2024-03-06T04:02:17;5.20;81.52
65378;SHT31;77039;51.042;13.806;2024-03-06T04:04:42;5.18;81.55
65378;SHT31;77039;51.042;13.806;2024-03-06T04:07:08;5.32;81.74
65378;SHT31;77039;51.042;13.806;2024-03-06T04:09:34;5.40;81.77
65378;SHT31;77039;51.042;13.806;2024-03-06T04:12:03;5.40;81.76
65378;SHT31;77039;51.042;13.806;2024-03-06T04:14:29;5.44;81.82
65378;SHT31;77039;51.042;13.806;2024-03-06T04:16:55;5.49;81.87
65378;SHT31;77039;51.042;13.806;2024-03-06T04:19:21;5.50;81.85
65378;SHT31;77039;51.042;13.806;2024-03-06T04:21:46;5.53;81.98
65378;SHT31;77039;51.042;13.806;2024-03-06T04:24:12;5.59;81.90
65378;SHT31;77039;51.042;13.806;2024-03-06T04:26:37;5.57;81.90
65378;SHT31;77039;51.042;13.806;2024-03-06T04:29:03;5.59;81.92
65378;SHT31;77039;51.042;13.806;2024-03-06T04:31:28;5.64;81.90
65378;SHT31;77039;51.042;13.806;2024-03-06T04:33:54;5.69;81.95
65378;SHT31;77039;51.042;13.806;2024-03-06T04:36:20;5.66;81.82
65378;SHT31;77039;51.042;13.806;2024-03-06T04:38:45;5.63;81.86
65378;SHT31;77039;51.042;13.806;2024-03-06T04:41:11;5.63;81.96
65378;SHT31;77039;51.042;13.806;2024-03-06T04:43:36;5.67;82.04
65378;SHT31;77039;51.042;13.806;2024-03-06T04:46:02;5.71;82.12
65378;SHT31;77039;51.042;13.806;2024-03-06T04:48:28;5.69;82.11
65378;SHT31;77039;51.042;13.806;2024-03-06T04:50:53;5.73;82.16
65378;SHT31;77039;51.042;13.806;2024-03-06T04:53:19;5.74;82.18
65378;SHT31;77039;51.042;13.806;2024-03-06T04:55:45;5.75;82.10
65378;SHT31;77039;51.042;13.806;2024-03-06T04:58:12;5.75;82.04
65378;SHT31;77039;51.042;13.806;2024-03-06T05:00:37;5.69;81.98
65378;SHT31;77039;51.042;13.806;2024-03-06T05:03:03;5.66;81.80
65378;SHT31;77039;51.042;13.806;2024-03-06T05:05:29;5.61;81.75
65378;SHT31;77039;51.042;13.806;2024-03-06T05:07:54;5.60;81.76
65378;SHT31;77039;51.042;13.806;2024-03-06T05:10:20;5.56;81.59
65378;SHT31;77039;51.042;13.806;2024-03-06T05:12:46;5.49;81.55
65378;SHT31;77039;51.042;13.806;2024-03-06T05:15:13;5.42;81.55
65378;SHT31;77039;51.042;13.806;2024-03-06T05:17:39;5.42;81.54
65378;SHT31;77039;51.042;13.806;2024-03-06T05:20:05;5.39;81.52
65378;SHT31;77039;51.042;13.806;2024-03-06T05:22:31;5.36;81.52
65378;SHT31;77039;51.042;13.806;2024-03-06T05:24:56;5.35;81.46
65378;SHT31;77039;51.042;13.806;2024-03-06T05:27:24;5.29;81.45
65378;SHT31;77039;51.042;13.806;2024-03-06T05:29:49;5.19;81.51
65378;SHT31;77039;51.042;13.806;2024-03-06T05:32:15;5.23;81.68
65378;SHT31;77039;51.042;13.806;2024-03-06T05:34:41;5.22;81.75
65378;SHT31;77039;51.042;13.806;2024-03-06T05:37:06;5.23;81.72
65378;SHT31;77039;51.042;13.806;2024-03-06T05:39:32;5.20;81.63
65378;SHT31;77039;51.042;13.806;2024-03-06T05:42:06;5.16;81.62
65378;SHT31;77039;51.042;13.806;2024-03-06T05:44:32;5.18;81.64
65378;SHT31;77039;51.042;13.806;2024-03-06T05:46:58;5.18;81.58
65378;SHT31;77039;51.042;13.806;2024-03-06T05:49:24;5.19;81.62
65378;SHT31;77039;51.042;13.806;2024-03-06T05:51:51;5.19;81.66
65378;SHT31;77039;51.042;13.806;2024-03-06T05:54:16;5.16;81.54
65378;SHT31;77039;51.042;13.806;2024-03-06T05:56:42;5.12;81.56
65378;SHT31;77039;51.042;13.806;2024-03-06T05:59:08;5.13;81.54
65378;SHT31;77039;51.042;13.806;2024-03-06T06:01:34;5.12;81.55
65378;SHT31;77039;51.042;13.806;2024-03-06T06:04:00;5.11;81.82
65378;SHT31;77039;51.042;13.806;2024-03-06T06:06:26;5.15;81.92
65378;SHT31;77039;51.042;13.806;2024-03-06T06:08:52;5.15;81.90
65378;SHT31;77039;51.042;13.806;2024-03-06T06:11:17;5.19;81.91
65378;SHT31;77039;51.042;13.806;2024-03-06T06:13:43;5.23;81.88
65378;SHT31;77039;51.042;13.806;2024-03-06T06:16:08;5.18;81.93
65378;SHT31;77039;51.042;13.806;2024-03-06T06:18:34;5.22;81.99
65378;SHT31;77039;51.042;13.806;2024-03-06T06:21:00;5.28;82.05
65378;SHT31;77039;51.042;13.806;2024-03-06T06:23:25;5.33;82.03
65378;SHT31;77039;51.042;13.806;2024-03-06T06:25:51;5.35;81.98
65378;SHT31;77039;51.042;13.806;2024-03-06T06:28:22;5.36;81.89
65378;SHT31;77039;51.042;13.806;2024-03-06T06:30:48;5.36;81.92
65378;SHT31;77039;51.042;13.806;2024-03-06T06:33:14;5.38;81.99
65378;SHT31;77039;51.042;13.806;2024-03-06T06:35:39;5.39;81.99
65378;SHT31;77039;51.042;13.806;2024-03-06T06:38:05;5.38;81.99
65378;SHT31;77039;51.042;13.806;2024-03-06T06:40:30;5.39;82.06
65378;SHT31;77039;51.042;13.806;2024-03-06T06:42:56;5.44;82.14
65378;SHT31;77039;51.042;13.806;2024-03-06T06:45:22;5.43;82.11
65378;SHT31;77039;51.042;13.806;2024-03-06T06:47:49;5.42;82.08
65378;SHT31;77039;51.042;13.806;2024-03-06T06:50:15;5.42;82.15
65378;SHT31;77039;51.042;13.806;2024-03-06T06:52:42;5.51;82.17
65378;SHT31;77039;51.042;13.806;2024-03-06T06:55:08;5.47;82.18
65378;SHT31;77039;51.042;13.806;2024-03-06T06:57:37;5.49;82.16
65378;SHT31;77039;51.042;13.806;2024-03-06T07:00:05;5.47;82.18
65378;SHT31;77039;51.042;13.806;2024-03-06T07:02:39;5.46;82.24
65378;SHT31;77039;51.042;13.806;2024-03-06T07:05:07;5.46;82.20
65378;SHT31;77039;51.042;13.806;2024-03-06T07:07:33;5.46;82.16
65378;SHT31;77039;51.042;13.806;2024-03-06T07:09:59;5.49;82.19
65378;SHT31;77039;51.042;13.806;2024-03-06T07:12:25;5.53;82.17
65378;SHT31;77039;51.042;13.806;2024-03-06T07:14:50;5.56;82.12
65378;SHT31;77039;51.042;13.806;2024-03-06T07:17:16;5.54;82.10
65378;SHT31;77039;51.042;13.806;2024-03-06T07:19:41;5.57;82.16
65378;SHT31;77039;51.042;13.806;2024-03-06T07:22:07;5.57;82.13
65378;SHT31;77039;51.042;13.806;2024-03-06T07:24:32;5.60;82.30
65378;SHT31;77039;51.042;13.806;2024-03-06T07:26:59;5.69;82.32
65378;SHT31;77039;51.042;13.806;2024-03-06T07:29:27;5.74;82.31
65378;SHT31;77039;51.042;13.806;2024-03-06T07:32:00;5.67;82.36
65378;SHT31;77039;51.042;13.806;2024-03-06T07:34:26;5.71;82.55
65378;SHT31;77039;51.042;13.806;2024-03-06T07:36:52;5.69;82.77
65378;SHT31;77039;51.042;13.806;2024-03-06T07:39:21;5.74;82.83
65378;SHT31;77039;51.042;13.806;2024-03-06T07:41:46;5.86;82.89
65378;SHT31;77039;51.042;13.806;2024-03-06T07:44:12;5.84;82.76
65378;SHT31;77039;51.042;13.806;2024-03-06T07:46:38;5.87;82.83
65378;SHT31;77039;51.042;13.806;2024-03-06T07:49:04;5.97;82.96
65378;SHT31;77039;51.042;13.806;2024-03-06T07:51:31;6.04;82.90
65378;SHT31;77039;51.042;13.806;2024-03-06T07:53:57;6.10;82.85
65378;SHT31;77039;51.042;13.806;2024-03-06T07:56:23;6.10;82.92
65378;SHT31;77039;51.042;13.806;2024-03-06T07:58:50;6.21;82.99
65378;SHT31;77039;51.042;13.806;2024-03-06T08:01:16;6.29;82.80
65378;SHT31;77039;51.042;13.806;2024-03-06T08:03:42;6.22;82.87
65378;SHT31;77039;51.042;13.806;2024-03-06T08:06:09;6.24;82.93
65378;SHT31;77039;51.042;13.806;2024-03-06T08:08:35;6.28;82.95
65378;SHT31;77039;51.042;13.806;2024-03-06T08:11:02;6.41;83.01
65378;SHT31;77039;51.042;13.806;2024-03-06T08:13:27;6.55;82.87
65378;SHT31;77039;51.042;13.806;2024-03-06T08:15:53;6.62;82.68
65378;SHT31;77039;51.042;13.806;2024-03-06T08:18:19;6.71;82.64
65378;SHT31;77039;51.042;13.806;2024-03-06T08:20:44;6.76;82.51
65378;SHT31;77039;51.042;13.806;2024-03-06T08:23:10;6.93;82.57
65378;SHT31;77039;51.042;13.806;2024-03-06T08:25:35;6.93;82.37
65378;SHT31;77039;51.042;13.806;2024-03-06T08:28:01;6.97;82.35
65378;SHT31;77039;51.042;13.806;2024-03-06T08:30:31;6.94;82.19
65378;SHT31;77039;51.042;13.806;2024-03-06T08:32:57;6.99;82.36
65378;SHT31;77039;51.042;13.806;2024-03-06T08:35:22;7.08;82.38
65378;SHT31;77039;51.042;13.806;2024-03-06T08:37:49;7.16;82.19
65378;SHT31;77039;51.042;13.806;2024-03-06T08:40:16;7.13;82.08
65378;SHT31;77039;51.042;13.806;2024-03-06T08:42:49;7.27;82.08
65378;SHT31;77039;51.042;13.806;2024-03-06T08:45:15;7.40;81.90
65378;SHT31;77039;51.042;13.806;2024-03-06T08:47:42;7.54;81.65
65378;SHT31;77039;51.042;13.806;2024-03-06T08:50:09;7.62;81.62
65378;SHT31;77039;51.042;13.806;2024-03-06T08:52:35;7.69;81.46
65378;SHT31;77039;51.042;13.806;2024-03-06T08:55:01;7.82;81.12
65378;SHT31;77039;51.042;13.806;2024-03-06T08:57:27;7.92;81.08
65378;SHT31;77039;51.042;13.806;2024-03-06T08:59:54;7.99;80.74
65378;SHT31;77039;51.042;13.806;2024-03-06T09:02:19;8.10;80.60
65378;SHT31;77039;51.042;13.806;2024-03-06T09:04:46;8.25;80.45
65378;SHT31;77039;51.042;13.806;2024-03-06T09:07:12;8.36;80.15
65378;SHT31;77039;51.042;13.806;2024-03-06T09:09:38;8.43;79.82
65378;SHT31;77039;51.042;13.806;2024-03-06T09:12:09;8.50;79.82
65378;SHT31;77039;51.042;13.806;2024-03-06T09:14:38;8.60;79.41
65378;SHT31;77039;51.042;13.806;2024-03-06T09:17:04;8.60;79.76
65378;SHT31;77039;51.042;13.806;2024-03-06T09:19:31;8.71;79.62
65378;SHT31;77039;51.042;13.806;2024-03-06T09:21:57;8.83;79.33
65378;SHT31;77039;51.042;13.806;2024-03-06T09:24:23;8.85;79.51
65378;SHT31;77039;51.042;13.806;2024-03-06T09:26:51;8.98;79.04
65378;SHT31;77039;51.042;13.806;2024-03-06T09:29:16;9.10;78.91
65378;SHT31;77039;51.042;13.806;2024-03-06T09:31:47;9.19;78.90
65378;SHT31;77039;51.042;13.806;2024-03-06T09:34:14;9.28;78.57
65378;SHT31;77039;51.042;13.806;2024-03-06T09:36:56;9.36;78.59
65378;SHT31;77039;51.042;13.806;2024-03-06T09:39:21;9.43;78.20
65378;SHT31;77039;51.042;13.806;2024-03-06T09:41:56;9.57;77.99
65378;SHT31;77039;51.042;13.806;2024-03-06T09:44:22;9.67;77.66
65378;SHT31;77039;51.042;13.806;2024-03-06T09:46:49;9.77;77.41
65378;SHT31;77039;51.042;13.806;2024-03-06T09:49:16;9.85;77.12
65378;SHT31;77039;51.042;13.806;2024-03-06T09:51:52;9.94;76.75
65378;SHT31;77039;51.042;13.806;2024-03-06T09:54:20;10.04;76.43
65378;SHT31;77039;51.042;13.806;2024-03-06T09:56:47;10.13;76.06
65378;SHT31;77039;51.042;13.806;2024-03-06T09:59:13;10.24;75.97
65378;SHT31;77039;51.042;13.806;2024-03-06T10:02:00;10.38;75.12
65378;SHT31;77039;51.042;13.806;2024-03-06T10:04:28;10.48;75.15
65378;SHT31;77039;51.042;13.806;2024-03-06T10:06:56;10.57;74.88
65378;SHT31;77039;51.042;13.806;2024-03-06T10:09:23;10.71;74.77
65378;SHT31;77039;51.042;13.806;2024-03-06T10:11:49;10.82;73.87
65378;SHT31;77039;51.042;13.806;2024-03-06T10:14:15;10.88;73.13
65378;SHT31;77039;51.042;13.806;2024-03-06T10:16:53;10.93;72.54
65378;SHT31;77039;51.042;13.806;2024-03-06T10:19:19;11.03;72.30
65378;SHT31;77039;51.042;13.806;2024-03-06T10:21:48;10.98;71.80
65378;SHT31;77039;51.042;13.806;2024-03-06T10:24:25;11.20;71.89
65378;SHT31;77039;51.042;13.806;2024-03-06T10:27:01;11.49;71.23
65378;SHT31;77039;51.042;13.806;2024-03-06T10:29:29;11.56;71.28
65378;SHT31;77039;51.042;13.806;2024-03-06T10:31:57;11.44;70.50
65378;SHT31;77039;51.042;13.806;2024-03-06T10:34:27;11.19;71.24
65378;SHT31;77039;51.042;13.806;2024-03-06T10:36:57;11.09;71.67
65378;SHT31;77039;51.042;13.806;2024-03-06T10:39:23;10.96;72.18
65378;SHT31;77039;51.042;13.806;2024-03-06T10:41:56;10.78;74.00
65378;SHT31;77039;51.042;13.806;2024-03-06T10:44:26;10.58;74.84
65378;SHT31;77039;51.042;13.806;2024-03-06T10:46:58;10.41;75.14
65378;SHT31;77039;51.042;13.806;2024-03-06T10:49:26;10.33;75.70
65378;SHT31;77039;51.042;13.806;2024-03-06T10:51:57;10.18;75.60
65378;SHT31;77039;51.042;13.806;2024-03-06T10:54:26;10.27;75.75
65378;SHT31;77039;51.042;13.806;2024-03-06T10:56:53;10.54;75.40
65378;SHT31;77039;51.042;13.806;2024-03-06T10:59:20;10.79;74.71
65378;SHT31;77039;51.042;13.806;2024-03-06T11:01:47;10.91;74.26
65378;SHT31;77039;51.042;13.806;2024-03-06T11:04:13;10.99;73.75
65378;SHT31;77039;51.042;13.806;2024-03-06T11:06:40;11.09;73.48
65378;SHT31;77039;51.042;13.806;2024-03-06T11:09:07;11.18;73.49
65378;SHT31;77039;51.042;13.806;2024-03-06T11:11:53;11.24;73.12
65378;SHT31;77039;51.042;13.806;2024-03-06T11:14:23;11.24;73.35
65378;SHT31;77039;51.042;13.806;2024-03-06T11:17:01;11.30;73.15
65378;SHT31;77039;51.042;13.806;2024-03-06T11:19:31;11.39;72.83
65378;SHT31;77039;51.042;13.806;2024-03-06T11:21:57;11.42;72.82
65378;SHT31;77039;51.042;13.806;2024-03-06T11:24:33;11.49;72.67
65378;SHT31;77039;51.042;13.806;2024-03-06T11:27:02;11.56;72.43
65378;SHT31;77039;51.042;13.806;2024-03-06T11:33:01;11.71;71.74
65378;SHT31;77039;51.042;13.806;2024-03-06T11:35:30;11.80;71.98
65378;SHT31;77039;51.042;13.806;2024-03-06T11:37:55;11.90;71.81
65378;SHT31;77039;51.042;13.806;2024-03-06T11:40:24;12.01;71.94
65378;SHT31;77039;51.042;13.806;2024-03-06T11:42:50;12.08;71.91
65378;SHT31;77039;51.042;13.806;2024-03-06T11:45:17;12.20;71.55
65378;SHT31;77039;51.042;13.806;2024-03-06T11:48:03;12.62;71.41
65378;SHT31;77039;51.042;13.806;2024-03-06T11:50:29;16.75;67.12
65378;SHT31;77039;51.042;13.806;2024-03-06T11:52:58;20.63;59.52
65378;SHT31;77039;51.042;13.806;2024-03-06T11:55:24;23.19;55.50
65378;SHT31;77039;51.042;13.806;2024-03-06T11:57:53;25.02;52.38
65378;SHT31;77039;51.042;13.806;2024-03-06T12:00:22;26.12;50.83
65378;SHT31;77039;51.042;13.806;2024-03-06T12:02:48;26.69;49.21
65378;SHT31;77039;51.042;13.806;2024-03-06T12:05:14;27.18;48.59
65378;SHT31;77039;51.042;13.806;2024-03-06T12:07:49;27.56;47.86
65378;SHT31;77039;51.042;13.806;2024-03-06T12:10:18;27.61;47.26
65378;SHT31;77039;51.042;13.806;2024-03-06T12:12:44;27.61;46.61
65378;SHT31;77039;51.042;13.806;2024-03-06T12:15:10;27.32;46.80
65378;SHT31;77039;51.042;13.806;2024-03-06T12:17:47;27.74;46.51
65378;SHT31;77039;51.042;13.806;2024-03-06T12:20:13;28.80;45.42
65378;SHT31;77039;51.042;13.806;2024-03-06T12:22:48;29.34;44.88
65378;SHT31;77039;51.042;13.806;2024-03-06T12:25:21;29.42;44.02
65378;SHT31;77039;51.042;13.806;2024-03-06T12:27:47;28.40;44.09
65378;SHT31;77039;51.042;13.806;2024-03-06T12:30:17;28.38;44.45
65378;SHT31;77039;51.042;13.806;2024-03-06T12:32:59;29.38;43.51
65378;SHT31;77039;51.042;13.806;2024-03-06T12:35:25;30.11;42.75
65378;SHT31;77039;51.042;13.806;2024-03-06T12:37:54;30.52;41.94
65378;SHT31;77039;51.042;13.806;2024-03-06T12:40:20;31.10;41.54
65378;SHT31;77039;51.042;13.806;2024-03-06T12:42:46;31.17;41.13
65378;SHT31;77039;51.042;13.806;2024-03-06T12:45:13;31.31;40.71
65378;SHT31;77039;51.042;13.806;2024-03-06T12:47:43;31.23;40.37
65378;SHT31;77039;51.042;13.806;2024-03-06T12:50:09;30.70;40.54
65378;SHT31;77039;51.042;13.806;2024-03-06T12:52:38;30.12;40.37
65378;SHT31;77039;51.042;13.806;2024-03-06T12:55:04;29.94;40.50
65378;SHT31;77039;51.042;13.806;2024-03-06T12:57:34;30.25;40.22
65378;SHT31;77039;51.042;13.806;2024-03-06T13:00:00;29.88;39.62
65378;SHT31;77039;51.042;13.806;2024-03-06T13:02:26;29.58;39.78
65378;SHT31;77039;51.042;13.806;2024-03-06T13:04:52;29.63;39.76
65378;SHT31;77039;51.042;13.806;2024-03-06T13:07:18;29.16;39.45
65378;SHT31;77039;51.042;13.806;2024-03-06T13:09:43;29.42;39.60
65378;SHT31;77039;51.042;13.806;2024-03-06T13:12:09;29.37;39.50
65378;SHT31;77039;51.042;13.806;2024-03-06T13:14:35;24.92;40.92
65378;SHT31;77039;51.042;13.806;2024-03-06T13:17:01;22.47;43.44
65378;SHT31;77039;51.042;13.806;2024-03-06T13:19:27;21.10;45.50
65378;SHT31;77039;51.042;13.806;2024-03-06T13:21:53;19.20;46.83
65378;SHT31;77039;51.042;13.806;2024-03-06T13:24:19;17.42;48.99
65378;SHT31;77039;51.042;13.806;2024-03-06T13:26:45;16.16;50.79
65378;SHT31;77039;51.042;13.806;2024-03-06T13:29:11;16.50;52.60
65378;SHT31;77039;51.042;13.806;2024-03-06T13:31:37;19.74;51.63
65378;SHT31;77039;51.042;13.806;2024-03-06T13:34:03;21.78;48.60
65378;SHT31;77039;51.042;13.806;2024-03-06T13:36:29;21.96;47.26
65378;SHT31;77039;51.042;13.806;2024-03-06T13:38:56;19.34;47.89
65378;SHT31;77039;51.042;13.806;2024-03-06T13:41:22;16.95;50.09
65378;SHT31;77039;51.042;13.806;2024-03-06T13:43:48;15.44;52.32
65378;SHT31;77039;51.042;13.806;2024-03-06T13:46:13;14.52;54.13
65378;SHT31;77039;51.042;13.806;2024-03-06T13:48:39;13.99;55.49
65378;SHT31;77039;51.042;13.806;2024-03-06T13:51:05;13.44;56.58
65378;SHT31;77039;51.042;13.806;2024-03-06T13:53:31;13.13;57.53
65378;SHT31;77039;51.042;13.806;2024-03-06T13:55:57;12.90;58.30
65378;SHT31;77039;51.042;13.806;2024-03-06T13:58:22;12.66;58.82
65378;SHT31;77039;51.042;13.806;2024-03-06T14:00:48;12.93;59.12
65378;SHT31;77039;51.042;13.806;2024-03-06T14:03:13;13.00;59.20
65378;SHT31;77039;51.042;13.806;2024-03-06T14:05:39;13.13;59.14
65378;SHT31;77039;51.042;13.806;2024-03-06T14:08:05;13.16;58.98
65378;SHT31;77039;51.042;13.806;2024-03-06T14:10:31;12.72;58.89
65378;SHT31;77039;51.042;13.806;2024-03-06T14:13:00;12.22;58.56
65378;SHT31;77039;51.042;13.806;2024-03-06T14:15:26;11.87;59.06
65378;SHT31;77039;51.042;13.806;2024-03-06T14:17:52;11.85;59.70
65378;SHT31;77039;51.042;13.806;2024-03-06T14:20:21;11.84;60.15
65378;SHT31;77039;51.042;13.806;2024-03-06T14:22:47;11.90;60.27
65378;SHT31;77039;51.042;13.806;2024-03-06T14:25:14;12.06;60.28
65378;SHT31;77039;51.042;13.806;2024-03-06T14:27:39;11.88;60.71
65378;SHT31;77039;51.042;13.806;2024-03-06T14:30:06;11.57;61.24
65378;SHT31;77039;51.042;13.806;2024-03-06T14:32:38;11.22;62.08
65378;SHT31;77039;51.042;13.806;2024-03-06T14:35:04;11.02;62.77
65378;SHT31;77039;51.042;13.806;2024-03-06T14:37:30;10.92;63.17
65378;SHT31;77039;51.042;13.806;2024-03-06T14:39:55;10.83;63.55
65378;SHT31;77039;51.042;13.806;2024-03-06T14:42:21;10.79;63.74
65378;SHT31;77039;51.042;13.806;2024-03-06T14:44:48;10.85;63.92
65378;SHT31;77039;51.042;13.806;2024-03-06T14:47:13;10.83;63.96
65378;SHT31;77039;51.042;13.806;2024-03-06T14:49:43;10.93;63.86
65378;SHT31;77039;51.042;13.806;2024-03-06T14:52:12;11.02;63.76
65378;SHT31;77039;51.042;13.806;2024-03-06T14:54:39;10.93;63.74
65378;SHT31;77039;51.042;13.806;2024-03-06T14:57:06;10.75;63.97
65378;SHT31;77039;51.042;13.806;2024-03-06T14:59:32;10.65;64.33
65378;SHT31;77039;51.042;13.806;2024-03-06T15:01:58;10.52;64.69
65378;SHT31;77039;51.042;13.806;2024-03-06T15:04:23;10.37;65.00
65378;SHT31;77039;51.042;13.806;2024-03-06T15:06:49;10.33;65.18
65378;SHT31;77039;51.042;13.806;2024-03-06T15:09:15;10.28;65.49
65378;SHT31;77039;51.042;13.806;2024-03-06T15:11:47;10.17;65.54
65378;SHT31;77039;51.042;13.806;2024-03-06T15:14:13;10.14;65.80
65378;SHT31;77039;51.042;13.806;2024-03-06T15:16:39;10.22;66.08
65378;SHT31;77039;51.042;13.806;2024-03-06T15:19:05;10.36;66.29
65378;SHT31;77039;51.042;13.806;2024-03-06T15:21:31;10.62;66.38
65378;SHT31;77039;51.042;13.806;2024-03-06T15:23:57;10.76;65.89
65378;SHT31;77039;51.042;13.806;2024-03-06T15:26:23;10.71;64.89